Time;durP1;ratioP1;P1;durP2;ratioP2;P2;SDS_P1;SDS_P2;PMS_P1;PMS_P2;Temp;Humidity;BMP_temperature;BMP_pressure;BME280_temperature;BME280_humidity;BME280_pressure;Samples;Min_cycle;Max_cycle;Signal;HPM_P1;HPM_P2
2022/11/10 00:02:21;;;;;;;448.67;402.77;;;;;;;6.80;100.00;98108.09;7384738;19;21034;-51
2022/11/10 00:05:17;;;;;;;439.17;394.35;;;;;;;6.67;100.00;98113.94;7383374;19;20019;-56
2022/11/10 00:08:12;;;;;;;435.92;392.27;;;;;;;6.82;100.00;98127.16;7386925;19;20025;-54
2022/11/10 00:11:05;;;;;;;443.08;398.38;;;;;;;6.62;100.00;98140.28;7383735;19;20015;-49
2022/11/10 00:17:04;;;;;;;457.83;411.77;;;;;;;6.44;100.00;98135.88;7375969;19;20042;-50
2022/11/10 00:19:57;;;;;;;437.08;392.77;;;;;;;6.43;100.00;98136.81;7384347;19;20014;-48
2022/11/10 00:22:51;;;;;;;438.75;394.48;;;;;;;6.44;100.00;98135.06;7385487;19;20010;-51
2022/11/10 00:25:44;;;;;;;454.60;408.85;;;;;;;6.29;100.00;98138.34;7380223;19;20010;-51
2022/11/10 00:28:37;;;;;;;439.55;395.65;;;;;;;6.68;100.00;98139.16;7384848;19;20818;-47
2022/11/10 00:31:30;;;;;;;460.67;415.80;;;;;;;6.43;100.00;98134.19;7385061;19;20038;-48
2022/11/10 00:34:24;;;;;;;479.00;432.48;;;;;;;6.52;100.00;98143.41;7382869;19;20308;-49
2022/11/10 00:37:15;;;;;;;454.27;408.70;;;;;;;6.41;100.00;98145.63;7384050;19;20006;-54
2022/11/10 00:40:11;;;;;;;460.30;414.50;;;;;;;6.55;100.00;98138.03;7385036;19;20497;-50
2022/11/10 00:43:06;;;;;;;438.10;394.17;;;;;;;6.37;100.00;98142.28;7386451;19;20010;-49
2022/11/10 00:45:59;;;;;;;451.02;405.70;;;;;;;6.50;100.00;98135.63;7380417;19;20014;-48
2022/11/10 00:48:52;;;;;;;436.73;393.00;;;;;;;6.36;100.00;98148.44;7381648;19;20114;-54
2022/11/10 00:51:44;;;;;;;440.40;396.65;;;;;;;6.30;100.00;98142.66;7385787;19;20011;-48
2022/11/10 00:54:36;;;;;;;456.05;409.75;;;;;;;6.27;100.00;98141.03;7377317;19;20014;-52
2022/11/10 00:57:31;;;;;;;451.55;407.10;;;;;;;6.30;100.00;98147.88;7383156;19;20014;-52
2022/11/10 01:00:23;;;;;;;444.42;399.77;;;;;;;6.38;100.00;98157.06;7386773;19;20010;-49
2022/11/10 01:03:20;;;;;;;451.85;406.25;;;;;;;6.27;100.00;98151.47;7381843;19;20021;-52
2022/11/10 01:06:14;;;;;;;437.40;393.13;;;;;;;6.30;100.00;98164.41;7378395;19;20093;-59
2022/11/10 01:09:06;;;;;;;426.73;383.30;;;;;;;6.22;100.00;98155.19;7385222;19;20010;-48
2022/11/10 01:11:58;;;;;;;424.48;381.10;;;;;;;6.33;100.00;98161.63;7385419;19;20007;-48
2022/11/10 01:14:53;;;;;;;472.55;425.73;;;;;;;6.56;100.00;98161.47;7378949;19;20011;-51
2022/11/10 01:17:48;;;;;;;452.40;407.63;;;;;;;6.34;100.00;98152.03;7383475;19;20086;-49
2022/11/10 01:20:43;;;;;;;459.42;413.45;;;;;;;6.34;100.00;98147.69;7384208;19;20480;-48
2022/11/10 01:23:37;;;;;;;463.13;416.33;;;;;;;6.11;100.00;98157.41;7381938;19;20010;-48
2022/11/10 01:26:29;;;;;;;451.88;405.85;;;;;;;6.05;100.00;98165.47;7381061;19;20011;-57
2022/11/10 01:29:21;;;;;;;442.90;398.17;;;;;;;6.35;100.00;98159.81;7384350;19;20017;-53
2022/11/10 01:32:16;;;;;;;437.77;393.20;;;;;;;6.22;100.00;98163.03;7384820;19;20023;-48
2022/11/10 01:35:09;;;;;;;442.10;396.65;;;;;;;6.02;100.00;98174.28;7376577;19;20496;-53
2022/11/10 01:38:01;;;;;;;428.67;384.85;;;;;;;6.26;100.00;98180.25;7384275;19;20006;-50
2022/11/10 01:40:56;;;;;;;451.92;407.23;;;;;;;6.02;100.00;98178.66;7384437;19;20480;-52
2022/11/10 01:43:50;;;;;;;447.40;401.38;;;;;;;6.05;100.00;98179.41;7378915;19;20021;-51
2022/11/10 01:46:42;;;;;;;455.80;410.65;;;;;;;6.17;100.00;98178.84;7381499;19;20010;-49
2022/11/10 01:49:37;;;;;;;475.55;429.75;;;;;;;6.08;100.00;98188.84;7381937;19;20017;-48
2022/11/10 01:52:29;;;;;;;467.90;421.58;;;;;;;6.43;100.00;98194.28;7383697;19;20011;-50
2022/11/10 01:55:21;;;;;;;466.75;420.90;;;;;;;6.26;100.00;98182.88;7379840;19;20474;-57
2022/11/10 01:58:13;;;;;;;464.85;419.15;;;;;;;6.26;100.00;98194.16;7382015;19;20048;-49
2022/11/10 02:01:08;;;;;;;454.05;408.40;;;;;;;6.37;100.00;98186.69;7387670;19;20366;-51
2022/11/10 02:04:03;;;;;;;461.13;414.70;;;;;;;6.26;100.00;98196.75;7385957;19;20401;-52
2022/11/10 02:06:59;;;;;;;453.73;408.23;;;;;;;6.42;100.00;98199.56;7390547;19;20011;-48
2022/11/10 02:09:51;;;;;;;449.52;404.48;;;;;;;6.48;100.00;98194.09;7390643;19;20045;-48
2022/11/10 02:12:43;;;;;;;466.08;418.80;;;;;;;6.51;100.00;98192.16;7387683;19;20003;-49
2022/11/10 02:15:38;;;;;;;444.00;399.13;;;;;;;6.64;100.00;98190.72;7388822;19;20021;-58
2022/11/10 02:18:30;;;;;;;433.17;388.98;;;;;;;6.52;100.00;98191.28;7387777;19;20066;-51
2022/11/10 02:21:26;;;;;;;448.05;403.55;;;;;;;6.54;100.00;98194.66;7387969;19;20019;-50
2022/11/10 02:24:18;;;;;;;448.27;403.17;;;;;;;6.32;100.00;98193.91;7384483;19;20015;-50
2022/11/10 02:27:10;;;;;;;463.38;418.08;;;;;;;6.42;100.00;98189.13;7390432;19;20019;-51
2022/11/10 02:30:05;;;;;;;464.48;418.92;;;;;;;6.26;100.00;98199.38;7387380;19;20014;-49
2022/11/10 02:32:56;;;;;;;468.10;421.17;;;;;;;6.46;100.00;98203.72;7382593;19;20558;-48
2022/11/10 02:35:48;;;;;;;456.60;411.10;;;;;;;6.44;100.00;98213.41;7388200;19;20453;-49
2022/11/10 02:38:43;;;;;;;437.67;393.13;;;;;;;6.05;100.00;98215.94;7389575;19;20039;-51
2022/11/10 02:41:35;;;;;;;453.65;407.05;;;;;;;6.24;100.00;98216.03;7384959;19;20015;-51
2022/11/10 02:44:27;;;;;;;434.48;389.88;;;;;;;6.34;100.00;98214.72;7388790;19;20460;-50
2022/11/10 02:47:19;;;;;;;430.52;386.40;;;;;;;6.38;100.00;98213.69;7389517;19;20007;-52
2022/11/10 02:50:13;;;;;;;470.92;424.33;;;;;;;6.18;100.00;98221.50;7385734;19;20014;-49
2022/11/10 02:53:05;;;;;;;466.75;421.42;;;;;;;6.34;100.00;98215.59;7384766;19;20102;-59
2022/11/10 02:56:00;;;;;;;447.15;402.50;;;;;;;6.37;100.00;98219.81;7385628;19;20055;-51
2022/11/10 02:58:53;;;;;;;457.90;412.63;;;;;;;6.16;100.00;98218.94;7386544;19;20018;-47
2022/11/10 03:01:46;;;;;;;451.95;406.67;;;;;;;6.42;100.00;98221.31;7377704;19;20331;-47
2022/11/10 03:04:38;;;;;;;434.75;390.63;;;;;;;6.24;100.00;98219.50;7388281;19;20007;-48
2022/11/10 03:07:30;;;;;;;440.38;395.95;;;;;;;6.33;100.00;98232.16;7388052;19;20553;-51
2022/11/10 03:10:22;;;;;;;458.13;412.05;;;;;;;6.52;100.00;98234.81;7382505;19;20407;-48
2022/11/10 03:13:17;;;;;;;457.67;412.75;;;;;;;6.43;100.00;98245.66;7385986;19;20014;-47
2022/11/10 03:16:09;;;;;;;450.85;405.92;;;;;;;6.61;100.00;98232.66;7388099;19;20014;-50
2022/11/10 03:19:02;;;;;;;466.02;418.70;;;;;;;6.56;100.00;98236.38;7384405;19;20011;-50
2022/11/10 03:21:56;;;;;;;459.73;414.08;;;;;;;6.37;100.00;98233.72;7388389;19;20098;-58
2022/11/10 03:24:49;;;;;;;446.23;401.48;;;;;;;6.29;100.00;98230.59;7388471;19;20074;-48
2022/11/10 03:27:45;;;;;;;458.65;412.85;;;;;;;6.15;100.00;98237.28;7386988;19;20002;-49
2022/11/10 03:30:40;;;;;;;457.08;410.45;;;;;;;6.32;100.00;98238.28;7383572;19;20114;-50
2022/11/10 03:33:32;;;;;;;;;;;;;;;6.30;100.00;98236.66;7387974;19;20010;-55
2022/11/10 03:36:24;;;;;;;450.85;405.63;;;;;;;6.27;100.00;98227.19;7387233;19;19915;-48
2022/11/10 03:39:16;;;;;;;455.95;409.75;;;;;;;6.38;100.00;98232.81;7382246;19;20030;-48
2022/11/10 03:42:08;;;;;;;441.73;397.00;;;;;;;6.30;100.00;98227.06;7386931;19;20010;-48
2022/11/10 03:44:59;;;;;;;455.65;410.25;;;;;;;6.36;100.00;98245.06;7388215;19;20012;-52
2022/11/10 03:47:56;;;;;;;468.65;422.10;;;;;;;6.71;100.00;98228.72;7382766;19;20014;-48
2022/11/10 03:50:51;;;;;;;453.73;408.63;;;;;;;6.61;100.00;98245.72;7385729;19;20006;-57
2022/11/10 03:53:43;;;;;;;449.70;404.90;;;;;;;6.55;100.00;98250.38;7386515;19;20461;-50
2022/11/10 03:56:36;;;;;;;429.25;385.85;;;;;;;6.43;100.00;98251.75;7387964;19;20014;-50
2022/11/10 03:59:28;;;;;;;441.08;395.60;;;;;;;6.41;100.00;98255.34;7382433;19;20026;-48
2022/11/10 04:02:20;;;;;;;433.73;390.05;;;;;;;6.62;100.00;98249.19;7385265;19;20017;-49
2022/11/10 04:18:19;;;;;;;456.45;411.35;;;;;;;6.67;100.00;98268.97;7380017;19;20014;-48
2022/11/10 04:21:13;;;;;;;437.38;394.17;;;;;;;6.78;100.00;98269.34;7381104;19;20022;-50
2022/11/10 04:24:08;;;;;;;446.90;402.23;;;;;;;6.68;100.00;98273.28;7375295;19;20501;-49
2022/11/10 04:27:00;;;;;;;433.70;390.85;;;;;;;6.81;100.00;98271.81;7381122;19;20010;-51
2022/11/10 04:29:53;;;;;;;452.20;407.83;;;;;;;6.68;100.00;98286.34;7381689;19;20469;-51
2022/11/10 04:32:45;;;;;;;475.00;428.70;;;;;;;6.86;100.00;98285.53;7376454;19;20073;-48
2022/11/10 04:35:38;;;;;;;457.70;412.30;;;;;;;6.93;100.00;98291.34;7382768;19;20007;-48
2022/11/10 04:38:33;;;;;;;469.95;424.35;;;;;;;6.78;100.00;98286.78;7382642;19;20695;-48
2022/11/10 04:41:26;;;;;;;450.73;405.77;;;;;;;6.77;100.00;98292.94;7377376;19;20015;-50
2022/11/10 04:44:18;;;;;;;463.13;417.27;;;;;;;6.57;100.00;98301.63;7376998;19;20018;-57
2022/11/10 04:47:10;;;;;;;442.83;397.70;;;;;;;6.76;100.00;98299.06;7380877;19;20793;-52
2022/11/10 04:50:02;;;;;;;454.48;408.92;;;;;;;6.67;100.00;98305.56;7380127;19;20082;-57
2022/11/10 04:52:54;;;;;;;477.55;430.58;;;;;;;6.59;100.00;98310.25;7379789;19;20041;-53
2022/11/10 04:55:51;;;;;;;470.08;424.17;;;;;;;7.02;100.00;98306.59;7385975;19;20010;-52
2022/11/10 04:58:43;;;;;;;454.85;409.10;;;;;;;6.56;100.00;98306.94;7385357;19;20007;-48
2022/11/10 05:01:39;;;;;;;462.95;415.67;;;;;;;6.88;100.00;98309.00;7379538;19;20014;-49
2022/11/10 05:04:31;;;;;;;455.65;409.75;;;;;;;6.91;100.00;98320.16;7385024;19;20022;-51
2022/11/10 05:07:26;;;;;;;461.73;415.65;;;;;;;6.32;100.00;98323.63;7381799;19;20040;-51
2022/11/10 05:10:18;;;;;;;462.48;416.55;;;;;;;6.67;100.00;98321.25;7385194;19;20006;-50
2022/11/10 05:13:13;;;;;;;480.27;434.25;;;;;;;6.64;100.00;98323.97;7380628;19;20022;-53
2022/11/10 05:16:06;;;;;;;469.70;424.63;;;;;;;6.44;100.00;98328.34;7383951;19;20010;-52
2022/11/10 05:18:57;;;;;;;474.52;428.58;;;;;;;6.74;100.00;98320.06;7381261;19;20366;-48
2022/11/10 05:21:50;;;;;;;508.10;459.55;;;;;;;6.64;100.00;98334.44;7378957;19;20007;-49
2022/11/10 05:24:42;;;;;;;496.42;447.77;;;;;;;6.34;100.00;98329.63;7383116;19;20033;-49
2022/11/10 05:27:34;;;;;;;502.13;453.08;;;;;;;6.45;100.00;98333.50;7382791;19;20469;-51
2022/11/10 05:30:29;;;;;;;495.50;445.08;;;;;;;6.66;100.00;98339.59;7376238;19;20099;-52
2022/11/10 05:33:22;;;;;;;487.92;439.98;;;;;;;6.55;100.00;98339.19;7384165;19;20010;-49
2022/11/10 05:36:15;;;;;;;508.50;458.40;;;;;;;6.65;100.00;98337.88;7390601;19;20094;-52
2022/11/10 05:39:07;;;;;;;520.97;468.77;;;;;;;6.68;100.00;98348.19;7389499;19;20965;-49
2022/11/10 05:41:59;;;;;;;524.15;474.15;;;;;;;6.57;100.00;98358.25;7387430;19;20014;-52
2022/11/10 05:44:51;;;;;;;527.83;477.13;;;;;;;6.52;100.00;98361.09;7390428;19;20014;-53
2022/11/10 05:47:47;;;;;;;483.42;435.63;;;;;;;6.64;100.00;98365.78;7393364;19;20015;-48
2022/11/10 05:50:39;;;;;;;494.60;446.33;;;;;;;6.48;100.00;98377.78;7386056;19;20018;-56
2022/11/10 05:53:32;;;;;;;475.05;428.45;;;;;;;6.65;100.00;98383.16;7390759;19;20015;-53
2022/11/10 05:56:23;;;;;;;482.75;435.33;;;;;;;6.57;100.00;98377.41;7391288;19;20010;-52
2022/11/10 05:59:16;;;;;;;509.17;459.48;;;;;;;6.48;100.00;98393.44;7384913;19;20015;-49
2022/11/10 06:02:09;;;;;;;485.10;437.35;;;;;;;6.55;100.00;98392.28;7389058;19;20011;-49
2022/11/10 06:05:11;;;;;;;486.45;438.65;;;;;;;6.79;100.00;98401.72;7390670;19;20433;-49
2022/11/10 06:08:03;;;;;;;469.88;423.17;;;;;;;6.74;100.00;98410.69;7391320;19;20420;-49
2022/11/10 06:10:56;;;;;;;521.55;472.23;;;;;;;6.22;100.00;98409.31;7386863;19;20015;-58
2022/11/10 06:13:49;;;;;;;497.70;450.05;;;;;;;6.57;100.00;98423.56;7391801;19;20014;-50
2022/11/10 06:16:41;;;;;;;506.88;458.83;;;;;;;6.64;100.00;98425.88;7385366;19;20022;-51
2022/11/10 06:19:36;;;;;;;509.40;459.73;;;;;;;6.56;100.00;98421.88;7384786;19;20019;-49
2022/11/10 06:22:31;;;;;;;488.20;441.17;;;;;;;6.77;100.00;98436.69;7390077;19;20018;-51
2022/11/10 06:25:23;;;;;;;482.63;437.00;;;;;;;6.61;100.00;98446.06;7389915;19;20006;-49
2022/11/10 06:28:16;;;;;;;493.13;445.63;;;;;;;6.81;100.00;98444.31;7386942;19;20495;-49
2022/11/10 06:31:08;;;;;;;481.25;435.40;;;;;;;6.76;100.00;98461.97;7388969;19;20482;-48
2022/11/10 06:34:00;;;;;;;489.15;443.23;;;;;;;6.63;100.00;98459.91;7389761;19;20094;-48
2022/11/10 06:36:52;;;;;;;487.45;440.98;;;;;;;6.66;100.00;98471.09;7390308;19;20043;-53
2022/11/10 06:39:48;;;;;;;480.10;434.30;;;;;;;6.75;100.00;98475.97;7386764;19;20002;-57
2022/11/10 06:42:41;;;;;;;453.80;409.83;;;;;;;6.67;100.00;98478.03;7390201;19;20477;-49
2022/11/10 06:45:33;;;;;;;456.23;411.98;;;;;;;6.55;100.00;98472.44;7386210;19;20039;-58
2022/11/10 06:48:25;;;;;;;491.38;444.15;;;;;;;6.41;100.00;98480.84;7383333;19;20015;-48
2022/11/10 06:51:18;;;;;;;467.80;423.55;;;;;;;6.47;100.00;98484.97;7390209;19;20118;-49
2022/11/10 06:54:10;;;;;;;489.90;443.38;;;;;;;6.47;100.00;98480.56;7387935;19;20023;-49
2022/11/10 06:57:06;;;;;;;489.95;443.35;;;;;;;6.65;100.00;98490.28;7381966;19;20612;-51
2022/11/10 07:00:01;;;;;;;480.52;435.48;;;;;;;6.60;100.00;98499.22;7390274;19;20014;-59
2022/11/10 07:02:54;;;;;;;481.02;435.52;;;;;;;6.30;100.00;98493.47;7388453;19;20007;-48
2022/11/10 07:05:46;;;;;;;484.30;437.73;;;;;;;6.26;100.00;98504.06;7388273;19;20021;-51
2022/11/10 07:08:41;;;;;;;499.80;452.63;;;;;;;6.58;100.00;98508.91;7383571;19;20082;-55
2022/11/10 07:11:35;;;;;;;499.48;452.23;;;;;;;6.53;100.00;98516.91;7386450;19;20021;-50
2022/11/10 07:14:30;;;;;;;489.00;442.48;;;;;;;6.76;100.00;98516.84;7387726;19;20010;-48
2022/11/10 07:17:25;;;;;;;507.77;458.98;;;;;;;6.54;100.00;98505.53;7381439;19;20014;-49
2022/11/10 07:20:24;;;;;;;535.72;483.13;;;;;;;6.66;100.00;98519.91;7382333;19;20007;-49
2022/11/10 07:23:23;;;;;;;486.05;440.65;;;;;;;6.54;100.00;98526.44;7384874;19;20347;-49
2022/11/10 07:26:15;;;;;;;501.92;455.15;;;;;;;6.73;100.00;98530.03;7383826;19;20018;-54
2022/11/10 07:29:08;;;;;;;504.33;456.55;;;;;;;6.65;100.00;98529.50;7376699;19;20343;-48
2022/11/10 07:32:02;;;;;;;492.08;445.40;;;;;;;6.83;100.00;98530.50;7385055;19;20074;-53
2022/11/10 07:34:54;;;;;;;496.45;449.80;;;;;;;7.06;100.00;98535.69;7383723;19;20465;-50
2022/11/10 07:37:48;;;;;;;494.58;447.45;;;;;;;7.23;100.00;98538.44;7383138;19;20071;-53
2022/11/10 07:40:42;;;;;;;476.33;431.92;;;;;;;6.98;100.00;98541.22;7379512;19;20026;-57
2022/11/10 07:43:36;;;;;;;501.58;454.88;;;;;;;6.81;100.00;98541.03;7382310;19;20102;-51
2022/11/10 07:46:31;;;;;;;483.17;437.73;;;;;;;7.07;100.00;98547.84;7387458;19;20021;-49
2022/11/10 07:49:26;;;;;;;508.60;460.20;;;;;;;7.44;100.00;98538.41;7374726;19;20011;-51
2022/11/10 07:52:22;;;;;;;511.88;463.63;;;;;;;7.09;100.00;98552.09;7382022;19;20014;-48
2022/11/10 07:55:15;;;;;;;488.70;441.65;;;;;;;7.11;100.00;98563.34;7383719;19;20018;-48
2022/11/10 07:58:08;;;;;;;496.85;448.95;;;;;;;6.72;100.00;98575.38;7385548;19;20356;-48
2022/11/10 08:01:00;;;;;;;489.92;443.30;;;;;;;6.91;100.00;98570.28;7386232;19;20014;-59
2022/11/10 08:03:55;;;;;;;;;;;;;;;7.28;100.00;98588.81;7387194;19;20323;-47
2022/11/10 08:06:53;;;;;;;487.50;442.02;;;;;;;7.28;100.00;98573.97;7387905;19;19923;-49
2022/11/10 08:09:44;;;;;;;;;;;;;;;7.52;100.00;98565.09;7381145;19;20026;-48
2022/11/10 08:12:36;;;;;;;501.30;455.33;;;;;;;7.47;100.00;98561.81;7386533;19;19930;-48
2022/11/10 08:15:34;;;;;;;508.02;461.98;;;;;;;7.28;100.00;98575.75;7385551;19;20035;-47
2022/11/10 08:18:29;;;;;;;543.72;494.02;;;;;;;7.88;100.00;98575.75;7384516;19;20926;-48
2022/11/10 08:21:25;;;;;;;505.55;457.08;;;;;;;7.45;100.00;98583.72;7381958;19;20014;-50
2022/11/10 08:24:20;;;;;;;493.65;446.98;;;;;;;7.70;100.00;98589.63;7383893;19;20322;-48
2022/11/10 08:27:12;;;;;;;488.92;442.50;;;;;;;7.46;100.00;98601.97;7382412;19;20026;-51
2022/11/10 08:30:05;;;;;;;506.23;458.10;;;;;;;7.69;100.00;98598.41;7382331;19;20018;-49
2022/11/10 08:33:01;;;;;;;474.48;428.42;;;;;;;7.53;100.00;98613.03;7386276;19;20013;-52
2022/11/10 08:35:54;;;;;;;;;;;;;;;7.46;100.00;98615.06;7386667;19;20018;-51
2022/11/10 08:38:45;;;;;;;476.83;431.23;;;;;;;7.34;100.00;98619.94;7385532;19;19923;-48
2022/11/10 08:41:41;;;;;;;485.35;439.13;;;;;;;7.18;100.00;98621.47;7379312;19;20014;-55
2022/11/10 08:44:33;;;;;;;494.55;448.77;;;;;;;7.12;100.00;98625.19;7383794;19;20017;-49
2022/11/10 08:47:25;;;;;;;488.65;442.70;;;;;;;7.55;100.00;98626.91;7385733;19;20018;-47
2022/11/10 08:50:17;;;;;;;506.23;457.38;;;;;;;7.65;100.00;98625.63;7381356;19;20438;-50
2022/11/10 08:53:11;;;;;;;513.30;464.88;;;;;;;7.51;100.00;98634.03;7385618;19;20014;-49
2022/11/10 08:56:06;;;;;;;514.58;466.42;;;;;;;7.81;100.00;98635.41;7386320;19;20011;-50
2022/11/10 08:59:02;;;;;;;528.97;478.95;;;;;;;7.57;100.00;98635.53;7380495;19;20018;-55
2022/11/10 09:01:55;;;;;;;507.67;460.38;;;;;;;7.73;100.00;98632.22;7379616;19;20099;-51
2022/11/10 09:04:48;;;;;;;595.03;538.10;;;;;;;7.67;100.00;98648.22;7382143;19;20033;-49
2022/11/10 09:07:48;;;;;;;596.58;538.03;;;;;;;7.75;100.00;98651.34;7383776;19;20015;-52
2022/11/10 09:10:44;;;;;;;588.70;531.83;;;;;;;7.71;100.00;98648.91;7380247;19;20014;-50
2022/11/10 09:13:36;;;;;;;;;;;;;;;8.04;100.00;98650.97;7384658;19;20022;-51
2022/11/10 09:16:30;;;;;;;543.35;491.60;;;;;;;7.75;100.00;98664.44;7383977;19;19911;-51
2022/11/10 09:19:23;;;;;;;586.33;529.60;;;;;;;8.19;100.00;98666.06;7381794;19;20018;-54
2022/11/10 09:22:15;;;;;;;497.65;451.40;;;;;;;8.03;100.00;98670.22;7377073;19;20336;-59
2022/11/10 09:25:08;;;;;;;493.30;447.58;;;;;;;8.26;100.00;98667.50;7381598;19;20014;-48
2022/11/10 09:28:00;;;;;;;489.10;443.10;;;;;;;7.97;100.00;98675.72;7380067;19;20993;-52
2022/11/10 09:30:53;;;;;;;506.98;459.52;;;;;;;8.29;100.00;98669.97;7379730;19;20019;-54
2022/11/10 09:33:48;;;;;;;480.30;434.60;;;;;;;8.41;100.00;98667.75;7380696;19;20492;-51
2022/11/10 09:36:42;;;;;;;486.10;439.58;;;;;;;8.39;100.00;98667.81;7381324;19;20038;-49
2022/11/10 09:39:34;;;;;;;518.72;469.80;;;;;;;8.27;100.00;98681.41;7376929;19;20032;-50
2022/11/10 09:42:35;;;;;;;488.80;442.40;;;;;;;8.18;100.00;98680.09;7381620;19;20094;-53
2022/11/10 09:45:32;;;;;;;478.55;432.45;;;;;;;8.40;100.00;98680.00;7381666;19;20014;-52
2022/11/10 09:48:31;;;;;;;476.90;431.75;;;;;;;8.58;100.00;98686.19;7383710;19;20018;-51
2022/11/10 09:51:31;;;;;;;503.38;454.73;;;;;;;8.81;100.00;98683.38;7382816;19;20014;-50
2022/11/10 09:54:38;;;;;;;501.75;453.63;;;;;;;8.38;100.00;98697.53;7378001;19;20022;-50
2022/11/10 09:57:33;;;;;;;487.20;440.30;;;;;;;8.72;100.00;98684.66;7374467;19;20026;-58
2022/11/10 10:00:26;;;;;;;489.98;443.30;;;;;;;9.04;100.00;98691.88;7373793;19;20090;-54
2022/11/10 10:03:25;;;;;;;498.15;450.73;;;;;;;8.85;100.00;98708.56;7380569;19;20019;-51
2022/11/10 10:06:20;;;;;;;494.40;446.60;;;;;;;8.56;100.00;98704.59;7374069;19;20318;-52
2022/11/10 10:09:25;;;;;;;465.70;420.38;;;;;;;8.73;100.00;98703.84;7378908;19;20014;-49
2022/11/10 10:12:28;;;;;;;456.67;411.13;;;;;;;8.95;100.00;98709.81;7379197;19;20053;-54
2022/11/10 10:15:33;;;;;;;473.30;428.38;;;;;;;8.94;100.00;98710.75;7378024;19;20335;-52
2022/11/10 10:18:36;;;;;;;471.88;425.65;;;;;;;8.79;100.00;98712.31;7380439;19;20007;-53
2022/11/10 10:21:46;;;;;;;468.27;420.75;;;;;;;8.54;100.00;98716.06;7385641;19;20017;-52
2022/11/10 10:24:44;;;;;;;463.08;417.13;;;;;;;8.65;100.00;98719.06;7388456;19;20021;-49
2022/11/10 10:27:39;;;;;;;484.10;436.20;;;;;;;8.65;100.00;98724.31;7383608;19;20014;-49
2022/11/10 10:30:31;;;;;;;471.63;426.70;;;;;;;8.65;100.00;98719.94;7386315;19;20018;-50
2022/11/10 10:33:25;;;;;;;488.75;442.52;;;;;;;8.68;100.00;98726.81;7382639;19;20011;-52
2022/11/10 10:36:24;;;;;;;503.77;455.20;;;;;;;8.56;100.00;98729.97;7382614;19;20011;-52
2022/11/10 10:39:22;;;;;;;491.13;444.55;;;;;;;8.62;100.00;98742.78;7383445;19;20017;-54
2022/11/10 10:42:30;;;;;;;490.77;444.48;;;;;;;8.55;100.00;98733.50;7384893;19;20014;-51
2022/11/10 10:45:28;;;;;;;498.58;451.92;;;;;;;8.64;100.00;98738.34;7384145;19;20568;-52
2022/11/10 10:48:31;;;;;;;490.27;442.70;;;;;;;8.92;100.00;98733.56;7386944;19;20090;-48
2022/11/10 10:51:43;;;;;;;498.23;451.38;;;;;;;8.87;100.00;98740.78;7386248;19;20346;-52
2022/11/10 10:54:38;;;;;;;492.00;446.10;;;;;;;8.94;100.00;98742.22;7387645;19;20634;-48
2022/11/10 10:57:34;;;;;;;492.73;445.27;;;;;;;8.77;100.00;98744.75;7380685;19;20017;-52
2022/11/10 11:00:35;;;;;;;508.10;461.92;;;;;;;9.16;100.00;98745.56;7387695;19;20459;-51
2022/11/10 11:03:34;;;;;;;508.77;462.58;;;;;;;8.93;100.00;98743.97;7385544;19;20014;-53
2022/11/10 11:06:28;;;;;;;509.67;463.38;;;;;;;8.85;100.00;98742.66;7384621;19;20342;-54
2022/11/10 11:09:28;;;;;;;517.70;469.40;;;;;;;9.21;100.00;98741.81;7378612;19;20797;-52
2022/11/10 11:12:36;;;;;;;512.20;465.50;;;;;;;8.98;100.00;98751.66;7386431;19;20030;-58
2022/11/10 11:15:34;;;;;;;499.00;452.00;;;;;;;9.23;100.00;98754.88;7387528;19;20022;-51
2022/11/10 11:18:26;;;;;;;490.02;444.60;;;;;;;9.12;100.00;98757.13;7386882;19;20023;-49
2022/11/10 11:21:32;;;;;;;486.33;440.50;;;;;;;9.51;100.00;98765.75;7383869;19;20409;-49
2022/11/10 11:24:32;;;;;;;495.73;447.00;;;;;;;9.31;100.00;98756.22;7381111;19;20015;-51
2022/11/10 11:27:30;;;;;;;484.85;437.55;;;;;;;9.27;100.00;98757.28;7381381;19;20090;-58
2022/11/10 11:30:26;;;;;;;476.50;431.40;;;;;;;9.44;100.00;98753.88;7383076;19;20048;-53
2022/11/10 11:33:38;;;;;;;474.70;429.42;;;;;;;9.37;100.00;98762.97;7382957;19;20025;-52
2022/11/10 11:36:42;;;;;;;471.23;425.08;;;;;;;9.15;100.00;98770.13;7384510;19;20022;-54
2022/11/10 11:39:53;;;;;;;470.15;424.20;;;;;;;9.00;100.00;98766.41;7385085;19;20493;-50
2022/11/10 11:42:58;;;;;;;443.85;401.13;;;;;;;9.16;100.00;98769.19;7386974;19;20082;-50
2022/11/10 11:46:00;;;;;;;495.80;446.88;;;;;;;9.10;100.00;98769.44;7383871;19;20451;-52
2022/11/10 11:49:03;;;;;;;483.90;434.05;;;;;;;8.74;100.00;98776.38;7380308;19;20011;-55
2022/11/10 11:52:07;;;;;;;470.15;423.10;;;;;;;9.05;100.00;98774.06;7385946;19;20015;-57
2022/11/10 11:55:20;;;;;;;482.05;434.55;;;;;;;8.96;100.00;98774.50;7383451;19;20098;-51
2022/11/10 11:58:29;;;;;;;463.67;417.55;;;;;;;8.83;100.00;98766.31;7386727;19;20038;-51
2022/11/10 12:01:47;;;;;;;487.55;439.63;;;;;;;9.12;100.00;98773.69;7388036;19;20101;-51
2022/11/10 12:04:51;;;;;;;485.42;437.30;;;;;;;9.12;100.00;98767.63;7385131;19;20350;-52
2022/11/10 12:07:54;;;;;;;482.33;434.00;;;;;;;9.17;100.00;98773.50;7386376;19;20010;-51
2022/11/10 12:10:58;;;;;;;496.60;447.85;;;;;;;9.12;100.00;98773.69;7387735;19;20046;-51
2022/11/10 12:14:00;;;;;;;491.83;443.77;;;;;;;9.17;100.00;98779.63;7385901;19;20006;-48
2022/11/10 12:17:01;;;;;;;478.60;431.63;;;;;;;9.21;100.00;98782.94;7384172;19;20025;-52
2022/11/10 12:20:03;;;;;;;485.38;436.67;;;;;;;9.16;100.00;98790.19;7380582;19;20015;-48
2022/11/10 12:23:07;;;;;;;476.63;430.15;;;;;;;9.11;100.00;98782.50;7386293;19;20011;-58
2022/11/10 12:26:12;;;;;;;476.02;429.00;;;;;;;9.21;100.00;98775.94;7385763;19;20030;-48
2022/11/10 12:29:12;;;;;;;482.60;435.92;;;;;;;9.29;100.00;98779.06;7388025;19;20412;-48
2022/11/10 12:32:13;;;;;;;476.48;429.02;;;;;;;9.24;100.00;98770.53;7387779;19;20014;-50
2022/11/10 12:35:12;;;;;;;488.30;441.17;;;;;;;9.39;100.00;98788.22;7381254;19;20010;-49
2022/11/10 12:38:11;;;;;;;508.05;458.35;;;;;;;9.30;100.00;98793.88;7376019;19;20773;-47
2022/11/10 12:41:10;;;;;;;480.77;432.95;;;;;;;9.44;100.00;98795.88;7387703;19;20011;-48
2022/11/10 12:44:11;;;;;;;498.23;450.92;;;;;;;9.32;100.00;98806.91;7387326;19;20010;-49
2022/11/10 12:47:11;;;;;;;504.17;457.02;;;;;;;9.52;100.00;98812.13;7388008;19;20049;-49
2022/11/10 12:50:14;;;;;;;506.23;458.30;;;;;;;9.33;100.00;98817.34;7388865;19;20699;-51
2022/11/10 12:53:16;;;;;;;500.80;452.42;;;;;;;8.99;100.00;98818.94;7381922;19;20156;-48
2022/11/10 12:56:19;;;;;;;504.38;456.15;;;;;;;9.19;100.00;98826.78;7382891;19;20022;-50
2022/11/10 12:59:30;;;;;;;488.25;440.90;;;;;;;9.20;100.00;98829.34;7387569;19;20021;-47
2022/11/10 13:02:34;;;;;;;484.45;438.40;;;;;;;9.21;100.00;98830.16;7384131;19;20484;-50
2022/11/10 13:05:34;;;;;;;497.17;450.05;;;;;;;9.11;100.00;98831.53;7385367;19;20014;-49
2022/11/10 13:08:41;;;;;;;477.58;431.13;;;;;;;8.99;100.00;98840.78;7387462;19;20011;-49
2022/11/10 13:11:40;;;;;;;508.25;461.75;;;;;;;9.04;100.00;98846.66;7387362;19;20357;-48
2022/11/10 13:14:35;;;;;;;502.23;455.42;;;;;;;9.06;100.00;98841.34;7382594;19;20011;-54
2022/11/10 13:18:02;;;;;;;466.83;420.85;;;;;;;9.13;100.00;98834.91;7386803;19;20466;-50
2022/11/10 13:20:58;;;;;;;498.17;450.17;;;;;;;9.29;100.00;98847.28;7378158;19;20492;-48
2022/11/10 13:24:04;;;;;;;;;;;;;;;9.25;100.00;98848.34;7385564;19;20006;-48
2022/11/10 13:26:58;;;;;;;505.50;458.60;;;;;;;9.64;100.00;98850.97;7386259;19;19922;-48
2022/11/10 13:30:08;;;;;;;482.92;437.27;;;;;;;9.31;100.00;98855.09;7387709;19;20015;-47